createdAt,value
2019-02-18T00:03:54.094Z,23.91
2019-02-18T00:09:49.091Z,23.26
2019-02-18T00:15:44.099Z,23
2019-02-18T00:21:39.085Z,22.87
2019-02-18T00:27:34.134Z,23.86
2019-02-18T00:33:29.095Z,24.8
2019-02-18T00:39:24.115Z,25.29
2019-02-18T00:45:19.085Z,24.6
2019-02-18T00:51:14.094Z,23.81
2019-02-18T00:57:09.158Z,25.44
2019-02-18T01:03:04.111Z,27.14
2019-02-18T01:08:59.100Z,24.25
2019-02-18T01:14:54.178Z,24.5
2019-02-18T01:20:49.116Z,23.7
2019-02-18T01:26:44.136Z,23.96
2019-02-18T01:32:39.104Z,22.6
2019-02-18T01:38:34.145Z,24.13
2019-02-18T01:44:29.145Z,24.01
2019-02-18T01:50:24.128Z,23.1
2019-02-18T01:56:19.120Z,24.44
2019-02-18T02:02:14.148Z,25.19
2019-02-18T02:08:09.130Z,24.46
2019-02-18T02:14:04.155Z,23.48
2019-02-18T02:19:59.160Z,24.64
2019-02-18T02:25:54.169Z,23.4
2019-02-18T02:31:49.144Z,24.16
2019-02-18T02:37:44.140Z,25.38
2019-02-18T02:43:39.161Z,25.88
2019-02-18T02:49:34.142Z,26.23
2019-02-18T02:55:29.169Z,25.97
2019-02-18T03:01:24.162Z,24.2
2019-02-18T03:07:19.206Z,24.02
2019-02-18T03:13:14.196Z,23.45
2019-02-18T03:19:09.175Z,23.67
2019-02-18T03:25:04.196Z,28.53
2019-02-18T03:30:59.220Z,28.86
2019-02-18T03:36:54.172Z,29.33
2019-02-18T03:42:49.215Z,28.17
2019-02-18T03:48:44.269Z,28.22
2019-02-18T03:54:39.220Z,25.96
2019-02-18T04:00:34.201Z,26.43
2019-02-18T04:06:29.195Z,25.86
2019-02-18T04:12:24.198Z,26.76
2019-02-18T04:18:19.232Z,27.22
2019-02-18T04:24:14.213Z,26.64
2019-02-18T04:30:09.225Z,26.21
2019-02-18T04:36:04.216Z,27.32
2019-02-18T04:41:59.231Z,25.89
2019-02-18T04:47:54.225Z,26.29
2019-02-18T04:53:49.238Z,26.93
2019-02-18T04:59:44.223Z,26.76
2019-02-18T05:05:39.259Z,26
2019-02-18T05:11:34.247Z,26.89
2019-02-18T05:17:29.227Z,26.26
2019-02-18T05:23:24.229Z,25.86
2019-02-18T05:29:19.258Z,26.4
2019-02-18T05:35:14.253Z,27.62
2019-02-18T05:41:09.244Z,26.24
2019-02-18T05:47:04.240Z,26.04
2019-02-18T05:52:59.244Z,26.01
2019-02-18T05:58:54.307Z,28.64
2019-02-18T06:04:49.312Z,28.44
2019-02-18T06:10:44.298Z,29.84
2019-02-18T06:16:39.354Z,28.56
2019-02-18T06:22:34.322Z,31.06
2019-02-18T06:28:29.275Z,30.4
2019-02-18T06:34:24.290Z,30.24
2019-02-18T06:40:19.277Z,30.32
2019-02-18T06:46:14.316Z,28.46
2019-02-18T06:52:09.283Z,30.73
2019-02-18T06:58:04.289Z,32.33
2019-02-18T07:03:59.287Z,34.83
2019-02-18T07:09:54.321Z,32.73
2019-02-18T07:15:49.353Z,32.13
2019-02-18T07:21:44.299Z,28.77
2019-02-18T07:27:39.308Z,29.93
2019-02-18T07:33:34.326Z,31.52
2019-02-18T07:39:29.323Z,33.97
2019-02-18T07:45:24.311Z,36.67
2019-02-18T07:51:19.310Z,41.37
2019-02-18T07:57:14.316Z,38.84
2019-02-18T08:03:09.342Z,37.48
2019-02-18T08:09:04.310Z,38.17
2019-02-18T08:14:59.316Z,40.09
2019-02-18T08:20:54.343Z,38.35
2019-02-18T08:26:49.345Z,39
2019-02-18T08:32:44.350Z,42.3
2019-02-18T08:38:39.381Z,41.32
2019-02-18T08:44:34.354Z,41.21
2019-02-18T08:50:29.417Z,44.11
2019-02-18T08:56:24.364Z,41.22
2019-02-18T09:02:19.373Z,35.88
2019-02-18T09:08:14.397Z,33.25
2019-02-18T09:14:09.371Z,36.03
2019-02-18T09:20:04.345Z,34.24
2019-02-18T09:25:59.406Z,29.94
2019-02-18T09:31:54.379Z,29.96
2019-02-18T09:37:49.410Z,29.13
2019-02-18T09:43:44.366Z,29.97
2019-02-18T09:49:39.444Z,29.51
2019-02-18T09:55:34.387Z,25.35
2019-02-18T10:01:29.382Z,21.7
2019-02-18T10:07:24.397Z,19.05
2019-02-18T10:13:19.416Z,15.33
2019-02-18T10:19:14.383Z,17.65
2019-02-18T10:25:09.437Z,22.18
2019-02-18T10:31:04.439Z,18.69
2019-02-18T10:36:59.418Z,25.82
2019-02-18T10:42:54.421Z,22.43
2019-02-18T10:48:49.483Z,25.76
2019-02-18T10:54:44.422Z,28.43
2019-02-18T11:00:39.428Z,26.16
2019-02-18T11:06:34.432Z,31.56
2019-02-18T11:12:29.431Z,33.04
2019-02-18T11:18:24.432Z,29.13
2019-02-18T11:24:20.715Z,14.7
2019-02-18T11:30:14.488Z,29.31
2019-02-18T11:36:09.427Z,28.8
2019-02-18T11:42:04.469Z,29.42
2019-02-18T11:47:59.471Z,28.8
2019-02-18T11:53:54.453Z,27.13
2019-02-18T11:59:49.457Z,28.45
2019-02-18T12:05:44.455Z,25.86
2019-02-18T12:11:39.464Z,21.97
2019-02-18T12:17:34.457Z,28.39
2019-02-18T12:23:29.446Z,28.41
2019-02-18T12:29:26.414Z,24.47
2019-02-18T12:35:19.497Z,22.64
2019-02-18T12:41:14.469Z,53.54
2019-02-18T12:47:09.467Z,23.11
2019-02-18T12:53:04.471Z,22.23
2019-02-18T12:58:59.461Z,20.09
2019-02-18T13:04:54.479Z,19.62
2019-02-18T13:10:49.491Z,20.13
2019-02-18T13:16:44.522Z,16.59
2019-02-18T13:22:39.506Z,18.75
2019-02-18T13:28:34.509Z,16.01
2019-02-18T13:34:29.515Z,21.33
2019-02-18T13:40:24.525Z,20.93
2019-02-18T13:46:19.504Z,19.89
2019-02-18T13:52:14.541Z,18.52
2019-02-18T13:58:09.506Z,21.02
2019-02-18T14:04:04.569Z,24.53
2019-02-18T14:09:59.516Z,19.97
2019-02-18T14:15:54.495Z,19.78
2019-02-18T14:21:49.529Z,18.2
2019-02-18T14:27:44.526Z,19.28
2019-02-18T14:33:39.542Z,11.35
2019-02-18T14:39:34.545Z,16.62
2019-02-18T14:45:29.555Z,10.1
2019-02-18T14:51:24.567Z,13.11
2019-02-18T14:57:19.543Z,17.19
2019-02-18T15:03:14.556Z,18.56
2019-02-18T15:09:09.603Z,17.54
2019-02-18T15:15:04.568Z,17.53
2019-02-18T15:20:59.559Z,26.9
2019-02-18T15:26:54.552Z,21.76
2019-02-18T15:32:49.594Z,14.89
2019-02-18T15:38:44.566Z,13.86
2019-02-18T15:44:39.601Z,14.68
2019-02-18T15:50:34.622Z,14.49
2019-02-18T15:56:29.628Z,14.18
2019-02-18T16:02:24.586Z,15.06
2019-02-18T16:08:19.590Z,15.32
2019-02-18T16:14:14.598Z,14.18
2019-02-18T16:20:09.572Z,15.86
2019-02-18T16:26:04.605Z,15.99
2019-02-18T16:32:01.284Z,16.04
2019-02-18T16:37:54.599Z,17.15
2019-02-18T16:43:51.290Z,19
2019-02-18T16:49:44.585Z,18.16
2019-02-18T16:55:39.617Z,18.55
2019-02-18T17:01:34.624Z,22.3
2019-02-18T17:07:29.641Z,25.11
2019-02-18T17:13:24.632Z,32.41
2019-02-18T17:19:19.618Z,40.89
2019-02-18T17:25:14.664Z,46.19
2019-02-18T17:31:09.608Z,44.86
2019-02-18T17:37:04.630Z,39.14
2019-02-18T17:42:59.626Z,32.06
2019-02-18T17:48:54.637Z,38.01
2019-02-18T17:54:49.632Z,41.8
2019-02-18T18:00:44.656Z,46.56
2019-02-18T18:06:39.634Z,36.2
2019-02-18T18:12:34.670Z,28.22
2019-02-18T18:18:29.677Z,28.47
2019-02-18T18:24:24.654Z,25.25
2019-02-18T18:30:19.670Z,26.31
2019-02-18T18:36:14.670Z,22.18
2019-02-18T18:42:09.674Z,23.5
2019-02-18T18:48:04.697Z,22.5
2019-02-18T18:53:59.663Z,30.2
2019-02-18T18:59:54.679Z,30.91
2019-02-18T19:05:49.660Z,35.82
2019-02-18T19:11:44.673Z,31.69
2019-02-18T19:17:39.689Z,42.11
2019-02-18T19:23:34.681Z,24.89
2019-02-18T19:29:29.715Z,29
2019-02-18T19:35:24.732Z,25.74
2019-02-18T19:41:19.709Z,28.01
2019-02-18T19:47:14.702Z,23.09
2019-02-18T19:53:09.710Z,20.64
2019-02-18T19:59:04.740Z,20.31
2019-02-18T20:04:59.736Z,19.41
2019-02-18T20:10:54.699Z,18.16
2019-02-18T20:16:49.721Z,23.99
2019-02-18T20:22:44.717Z,24.31
2019-02-18T20:28:39.718Z,28.87
2019-02-18T20:34:34.732Z,27.29
2019-02-18T20:40:29.759Z,31.27
2019-02-18T20:46:24.761Z,34.34
2019-02-18T20:52:19.722Z,33.44
2019-02-18T20:58:14.750Z,26.57
2019-02-18T21:04:09.759Z,26.48
2019-02-18T21:10:04.738Z,27.68
2019-02-18T21:15:59.742Z,25.14
2019-02-18T21:21:54.751Z,23.45
2019-02-18T21:27:49.756Z,22.36
2019-02-18T21:33:44.789Z,21.4
2019-02-18T21:39:39.773Z,21.89
2019-02-18T21:45:34.773Z,22.85
2019-02-18T21:51:29.789Z,25.99
2019-02-18T21:57:24.770Z,25.04
2019-02-18T22:03:19.796Z,26.6
2019-02-18T22:09:14.812Z,26.94
2019-02-18T22:15:09.826Z,25.35
2019-02-18T22:21:04.812Z,25.55
2019-02-18T22:27:03.851Z,27.1
2019-02-18T22:32:54.858Z,36.89
2019-02-18T22:38:49.812Z,115.04
2019-02-18T22:44:44.862Z,102.18
2019-02-18T22:50:39.907Z,68.73
2019-02-18T22:56:40.615Z,43.83
2019-02-18T23:02:29.875Z,30.02
2019-02-18T23:08:24.860Z,24.97
2019-02-18T23:14:19.808Z,40.19
2019-02-18T23:20:14.794Z,21.63
2019-02-18T23:26:09.812Z,23.29
2019-02-18T23:32:04.834Z,23.35
2019-02-18T23:37:59.820Z,26.43
2019-02-18T23:43:54.877Z,28.53
2019-02-18T23:49:49.858Z,29.01
2019-02-18T23:55:44.906Z,31.21
